Time;durP1;ratioP1;P1;durP2;ratioP2;P2;SDS_P1;SDS_P2;PMS_P1;PMS_P2;Temp;Humidity;BMP_temperature;BMP_pressure;BME280_temperature;BME280_humidity;BME280_pressure;Samples;Min_cycle;Max_cycle;Signal;HPM_P1;HPM_P2
2023/11/21 00:01:35;;;;;;;;;;;19.50;67.80;;;;;;5001197;28;1618;-71
2023/11/21 00:04:01;;;;;;;;;;;19.50;67.80;;;;;;5000596;28;1415;-71
2023/11/21 00:06:27;;;;;;;;;;;19.50;67.80;;;;;;4999510;28;1379;-71
2023/11/21 00:08:52;;;;;;;;;;;19.50;67.80;;;;;;5000953;28;1362;-71
2023/11/21 00:11:18;;;;;;;;;;;19.50;67.80;;;;;;4999991;28;1471;-70
2023/11/21 00:13:43;;;;;;;;;;;19.50;67.80;;;;;;5002247;28;1375;-71
2023/11/21 00:16:09;;;;;;;;;;;19.50;67.80;;;;;;4986902;28;1350;-71
2023/11/21 00:18:35;;;;;;;;;;;19.40;67.80;;;;;;5000997;28;1996;-71
2023/11/21 00:21:01;;;;;;;;;;;19.50;67.90;;;;;;5003299;28;1255;-71
2023/11/21 00:23:26;;;;;;;;;;;19.40;67.80;;;;;;5003628;28;1492;-71
2023/11/21 00:25:52;;;;;;;;;;;19.40;67.80;;;;;;5001177;28;1441;-71
2023/11/21 00:28:17;;;;;;;;;;;19.50;67.90;;;;;;5005116;28;1581;-70
2023/11/21 00:30:43;;;;;;;;;;;19.40;67.90;;;;;;5006293;28;1335;-71
2023/11/21 00:33:08;;;;;;;;;;;19.40;67.90;;;;;;5003312;28;1372;-71
2023/11/21 00:35:34;;;;;;;;;;;19.40;67.90;;;;;;5004978;28;1371;-70
2023/11/21 00:37:59;;;;;;;;;;;19.50;68.00;;;;;;5002081;28;1966;-70
2023/11/21 00:40:25;;;;;;;;;;;19.40;67.90;;;;;;5003144;28;1246;-71
2023/11/21 00:42:50;;;;;;;;;;;19.40;67.90;;;;;;5005168;28;1422;-71
2023/11/21 00:45:16;;;;;;;;;;;19.40;67.90;;;;;;5007609;28;1426;-70
2023/11/21 00:47:42;;;;;;;;;;;19.40;67.90;;;;;;5003595;28;1531;-71
2023/11/21 00:50:08;;;;;;;;;;;19.40;68.00;;;;;;4992289;28;1521;-71
2023/11/21 00:52:33;;;;;;;;;;;19.40;68.00;;;;;;4994033;28;1420;-71
2023/11/21 00:54:59;;;;;;;;;;;19.40;68.00;;;;;;5005611;28;1353;-71
2023/11/21 00:57:26;;;;;;;;;;;19.40;68.00;;;;;;5005179;28;1984;-71
2023/11/21 00:59:51;;;;;;;;;;;19.40;68.10;;;;;;4992161;28;1341;-70
2023/11/21 01:02:17;;;;;;;;;;;19.40;68.00;;;;;;5004296;28;1336;-70
2023/11/21 01:04:43;;;;;;;;;;;19.40;68.00;;;;;;4999954;28;1399;-71
2023/11/21 01:07:09;;;;;;;;;;;19.40;68.00;;;;;;5001012;28;1852;-70
2023/11/21 01:09:34;;;;;;;;;;;19.40;68.10;;;;;;5003063;28;1477;-71
2023/11/21 01:12:00;;;;;;;;;;;19.40;68.00;;;;;;5002984;28;1451;-71
2023/11/21 01:14:26;;;;;;;;;;;19.40;68.10;;;;;;4986754;28;1511;-71
2023/11/21 01:16:52;;;;;;;;;;;19.40;68.10;;;;;;5002156;28;1973;-71
2023/11/21 01:19:17;;;;;;;;;;;19.40;68.10;;;;;;5004072;28;1744;-71
2023/11/21 01:21:43;;;;;;;;;;;19.40;68.50;;;;;;5003173;28;1447;-71
2023/11/21 01:24:08;;;;;;;;;;;19.50;68.60;;;;;;5003886;28;1441;-70
2023/11/21 01:26:34;;;;;;;;;;;19.50;68.40;;;;;;4990050;28;1297;-71
2023/11/21 01:28:59;;;;;;;;;;;19.50;68.40;;;;;;5004894;28;1618;-70
2023/11/21 01:31:29;;;;;;;;;;;19.50;68.40;;;;;;5001898;28;1838;-71
2023/11/21 01:33:55;;;;;;;;;;;19.50;68.40;;;;;;5003300;28;1521;-71
2023/11/21 01:36:21;;;;;;;;;;;19.50;68.30;;;;;;5001532;28;1474;-71
2023/11/21 01:38:47;;;;;;;;;;;19.50;68.30;;;;;;5004539;28;1890;-70
2023/11/21 01:41:13;;;;;;;;;;;19.50;68.30;;;;;;4984905;28;897;-71
2023/11/21 01:43:39;;;;;;;;;;;19.50;68.40;;;;;;4991849;28;1367;-71
2023/11/21 01:46:06;;;;;;;;;;;19.40;68.30;;;;;;5003828;28;1380;-71
2023/11/21 01:48:32;;;;;;;;;;;19.40;68.30;;;;;;4991313;28;1477;-70
2023/11/21 01:50:58;;;;;;;;;;;19.50;68.30;;;;;;4992033;28;1567;-71
2023/11/21 01:53:25;;;;;;;;;;;19.40;68.30;;;;;;4984091;28;1429;-71
2023/11/21 01:55:50;;;;;;;;;;;19.40;68.30;;;;;;5001175;28;1386;-70
2023/11/21 01:58:16;;;;;;;;;;;19.40;68.30;;;;;;5000895;28;1906;-70
2023/11/21 02:00:42;;;;;;;;;;;19.40;68.30;;;;;;5001071;28;1398;-71
2023/11/21 02:03:07;;;;;;;;;;;19.40;68.30;;;;;;4988820;28;1478;-72
2023/11/21 02:05:33;;;;;;;;;;;19.40;68.30;;;;;;5001952;28;1378;-71
2023/11/21 02:07:58;;;;;;;;;;;19.40;68.30;;;;;;4987446;28;1503;-71
2023/11/21 02:10:24;;;;;;;;;;;19.40;68.30;;;;;;4999120;28;1479;-71
2023/11/21 02:12:52;;;;;;;;;;;19.40;68.30;;;;;;5001404;28;1339;-71
2023/11/21 02:15:21;;;;;;;;;;;19.40;68.30;;;;;;4991035;28;1511;-71
2023/11/21 02:17:47;;;;;;;;;;;19.40;68.30;;;;;;5002951;28;1926;-71
2023/11/21 02:20:15;;;;;;;;;;;19.40;68.30;;;;;;4988905;28;2000;-71
2023/11/21 02:22:41;;;;;;;;;;;19.40;68.30;;;;;;5003461;28;2166;-71
2023/11/21 02:25:07;;;;;;;;;;;19.40;68.30;;;;;;4989268;28;1489;-72
2023/11/21 02:27:33;;;;;;;;;;;19.40;68.30;;;;;;5001460;28;1585;-72
2023/11/21 02:29:59;;;;;;;;;;;19.40;68.30;;;;;;5003826;28;1281;-72
2023/11/21 02:32:25;;;;;;;;;;;19.40;68.30;;;;;;4989910;28;1362;-72
2023/11/21 02:34:51;;;;;;;;;;;19.30;69.00;;;;;;5003792;28;1302;-71
2023/11/21 02:37:16;;;;;;;;;;;19.30;68.20;;;;;;4999549;28;1969;-70
2023/11/21 02:39:42;;;;;;;;;;;19.40;68.30;;;;;;4985657;28;1351;-70
2023/11/21 02:42:07;;;;;;;;;;;19.40;68.30;;;;;;4990015;28;1289;-70
2023/11/21 02:44:33;;;;;;;;;;;19.40;68.30;;;;;;5002773;28;1264;-70
2023/11/21 02:47:00;;;;;;;;;;;19.40;68.30;;;;;;5000049;28;1473;-71
2023/11/21 02:49:28;;;;;;;;;;;19.40;68.40;;;;;;5002087;28;1363;-70
2023/11/21 02:51:54;;;;;;;;;;;19.30;68.20;;;;;;5003599;28;1446;-70
2023/11/21 02:54:21;;;;;;;;;;;19.30;68.30;;;;;;5001433;28;1356;-70
2023/11/21 02:56:47;;;;;;;;;;;19.30;68.30;;;;;;5000763;28;1959;-69
2023/11/21 02:59:13;;;;;;;;;;;19.30;68.30;;;;;;5002628;28;1387;-71
2023/11/21 03:01:38;;;;;;;;;;;19.30;68.30;;;;;;4975705;28;1444;-70
2023/11/21 03:04:04;;;;;;;;;;;19.30;68.30;;;;;;5002095;28;1436;-70
2023/11/21 03:06:29;;;;;;;;;;;19.30;68.30;;;;;;5003135;28;1448;-70
2023/11/21 03:08:55;;;;;;;;;;;19.30;68.30;;;;;;5004858;28;1657;-70
2023/11/21 03:11:20;;;;;;;;;;;19.30;68.30;;;;;;5001371;28;1436;-70
2023/11/21 03:13:46;;;;;;;;;;;19.30;68.30;;;;;;5001194;28;1305;-72
2023/11/21 03:16:11;;;;;;;;;;;19.30;68.30;;;;;;4991209;28;1331;-72
2023/11/21 03:18:37;;;;;;;;;;;19.30;68.30;;;;;;5001067;28;1967;-72
2023/11/21 03:21:04;;;;;;;;;;;19.30;68.30;;;;;;5000322;28;1534;-72
2023/11/21 03:23:29;;;;;;;;;;;19.30;68.30;;;;;;5000365;28;1441;-72
2023/11/21 03:25:54;;;;;;;;;;;19.30;68.30;;;;;;5001217;28;1433;-69
2023/11/21 03:28:20;;;;;;;;;;;19.30;68.40;;;;;;4982773;28;1923;-69
2023/11/21 03:30:45;;;;;;;;;;;19.30;68.30;;;;;;5002005;28;1545;-70
2023/11/21 03:33:12;;;;;;;;;;;19.30;68.40;;;;;;5001115;28;1399;-72
2023/11/21 03:35:37;;;;;;;;;;;19.30;68.40;;;;;;4985481;28;1221;-71
2023/11/21 03:38:03;;;;;;;;;;;19.30;68.40;;;;;;4988675;28;1914;-71
2023/11/21 03:40:29;;;;;;;;;;;19.30;68.40;;;;;;5000718;28;1503;-71
2023/11/21 03:42:54;;;;;;;;;;;19.30;68.40;;;;;;4989422;28;1499;-72
2023/11/21 03:45:20;;;;;;;;;;;19.30;68.40;;;;;;4984672;28;1469;-71
2023/11/21 03:47:46;;;;;;;;;;;19.30;68.40;;;;;;4989247;28;1601;-71
2023/11/21 03:50:12;;;;;;;;;;;19.30;68.40;;;;;;5005326;28;1789;-71
2023/11/21 03:52:37;;;;;;;;;;;19.30;68.40;;;;;;5006119;28;1309;-71
2023/11/21 03:55:03;;;;;;;;;;;19.30;68.40;;;;;;5006546;28;1392;-72
2023/11/21 03:57:28;;;;;;;;;;;19.30;68.40;;;;;;5005031;28;1987;-71
2023/11/21 03:59:53;;;;;;;;;;;19.30;68.40;;;;;;5004133;28;1679;-71
2023/11/21 04:02:19;;;;;;;;;;;19.30;68.40;;;;;;4993222;28;1426;-71
2023/11/21 04:04:44;;;;;;;;;;;19.30;68.40;;;;;;5004009;28;1366;-71
2023/11/21 04:07:10;;;;;;;;;;;19.30;68.40;;;;;;5003747;28;1450;-70
2023/11/21 04:09:36;;;;;;;;;;;19.30;68.50;;;;;;5006122;28;1475;-71
2023/11/21 04:12:02;;;;;;;;;;;19.30;68.40;;;;;;5006282;28;1492;-70
2023/11/21 04:14:27;;;;;;;;;;;19.30;68.50;;;;;;5004580;28;1772;-71
2023/11/21 04:16:53;;;;;;;;;;;19.30;68.50;;;;;;5003541;28;1939;-71
2023/11/21 04:19:19;;;;;;;;;;;19.30;68.50;;;;;;4985660;28;1498;-71
2023/11/21 04:21:44;;;;;;;;;;;19.30;68.50;;;;;;4992667;28;1455;-70
2023/11/21 04:24:13;;;;;;;;;;;19.30;68.50;;;;;;5004631;28;1360;-71
2023/11/21 04:26:38;;;;;;;;;;;19.30;68.50;;;;;;5005519;28;1375;-70
2023/11/21 04:29:04;;;;;;;;;;;19.30;68.50;;;;;;4992020;28;1262;-71
2023/11/21 04:31:30;;;;;;;;;;;19.30;68.50;;;;;;5002720;28;1041;-71
2023/11/21 04:33:55;;;;;;;;;;;19.30;68.50;;;;;;5005634;28;1284;-70
2023/11/21 04:36:21;;;;;;;;;;;19.30;68.50;;;;;;5002534;28;1330;-69
2023/11/21 04:38:46;;;;;;;;;;;19.30;68.50;;;;;;5002003;28;2005;-69
2023/11/21 04:41:11;;;;;;;;;;;19.30;68.50;;;;;;5004874;28;1882;-69
2023/11/21 04:43:37;;;;;;;;;;;19.30;68.50;;;;;;5004730;28;1461;-69
2023/11/21 04:46:03;;;;;;;;;;;19.30;68.50;;;;;;4992526;28;1411;-71
2023/11/21 04:48:28;;;;;;;;;;;19.30;68.50;;;;;;4992663;28;1513;-72
2023/11/21 04:50:53;;;;;;;;;;;19.30;68.50;;;;;;4992731;28;1210;-71
2023/11/21 04:53:19;;;;;;;;;;;19.30;68.50;;;;;;4993100;28;1482;-72
2023/11/21 04:55:45;;;;;;;;;;;19.30;68.60;;;;;;5000715;28;1233;-73
2023/11/21 04:58:11;;;;;;;;;;;19.30;68.50;;;;;;5002345;28;1975;-73
2023/11/21 05:00:37;;;;;;;;;;;19.30;68.60;;;;;;5003912;28;1429;-73
2023/11/21 05:03:03;;;;;;;;;;;19.30;68.60;;;;;;5004247;28;1348;-73
2023/11/21 05:05:29;;;;;;;;;;;19.30;68.60;;;;;;5004601;28;1260;-73
2023/11/21 05:07:55;;;;;;;;;;;19.30;68.60;;;;;;4993570;28;1333;-73
2023/11/21 05:10:22;;;;;;;;;;;19.30;68.60;;;;;;4992667;28;1549;-72
2023/11/21 05:12:47;;;;;;;;;;;19.30;68.60;;;;;;4975934;28;1986;-74
2023/11/21 05:15:14;;;;;;;;;;;19.30;68.60;;;;;;4993306;28;1625;-76
2023/11/21 05:17:43;;;;;;;;;;;19.30;68.60;;;;;;4985158;28;1971;-75
2023/11/21 05:20:13;;;;;;;;;;;19.30;68.60;;;;;;5003038;28;1251;-73
2023/11/21 05:22:39;;;;;;;;;;;19.30;68.60;;;;;;4991212;28;1554;-72
2023/11/21 05:25:05;;;;;;;;;;;19.30;68.60;;;;;;5002600;28;1441;-71
2023/11/21 05:27:30;;;;;;;;;;;19.30;68.60;;;;;;5000809;28;1340;-70
2023/11/21 05:29:56;;;;;;;;;;;19.20;68.50;;;;;;5004836;28;1248;-70
2023/11/21 05:32:23;;;;;;;;;;;19.30;68.60;;;;;;5001879;28;1400;-70
2023/11/21 05:34:49;;;;;;;;;;;19.20;68.50;;;;;;5005927;28;1410;-71
2023/11/21 05:37:14;;;;;;;;;;;19.30;68.60;;;;;;4991845;28;1939;-71
2023/11/21 05:39:40;;;;;;;;;;;19.30;68.60;;;;;;5004801;28;1447;-71
2023/11/21 05:42:06;;;;;;;;;;;19.30;68.60;;;;;;5005668;28;1389;-72
2023/11/21 05:44:31;;;;;;;;;;;19.30;68.60;;;;;;4988803;28;1690;-71
2023/11/21 05:46:59;;;;;;;;;;;19.30;68.60;;;;;;5003309;28;1540;-73
2023/11/21 05:49:26;;;;;;;;;;;19.30;68.70;;;;;;4987254;28;1407;-73
2023/11/21 05:51:53;;;;;;;;;;;19.20;68.60;;;;;;5004151;28;1442;-71
2023/11/21 05:54:19;;;;;;;;;;;19.30;68.70;;;;;;5003041;28;1291;-70
2023/11/21 05:56:44;;;;;;;;;;;19.20;68.60;;;;;;5001846;28;1989;-70
2023/11/21 05:59:10;;;;;;;;;;;19.30;68.60;;;;;;5001300;28;1488;-71
2023/11/21 06:01:38;;;;;;;;;;;19.20;68.60;;;;;;5004551;28;1460;-70
2023/11/21 06:04:03;;;;;;;;;;;19.30;68.70;;;;;;4999085;28;1458;-71
2023/11/21 06:06:29;;;;;;;;;;;19.20;68.60;;;;;;5000140;28;1510;-70
2023/11/21 06:08:55;;;;;;;;;;;19.20;68.60;;;;;;4990908;28;1377;-72
2023/11/21 06:11:20;;;;;;;;;;;19.30;68.70;;;;;;5002453;28;1376;-72
2023/11/21 06:13:47;;;;;;;;;;;19.20;68.60;;;;;;5004729;28;1330;-72
2023/11/21 06:16:16;;;;;;;;;;;19.20;68.70;;;;;;5004194;28;1429;-72
2023/11/21 06:18:41;;;;;;;;;;;19.20;68.60;;;;;;4992364;28;1903;-70
2023/11/21 06:21:09;;;;;;;;;;;19.30;68.70;;;;;;4999202;28;1483;-71
2023/11/21 06:23:34;;;;;;;;;;;19.20;68.70;;;;;;5003917;28;1376;-71
2023/11/21 06:26:00;;;;;;;;;;;19.20;68.70;;;;;;5001534;28;1391;-71
2023/11/21 06:28:25;;;;;;;;;;;19.20;68.70;;;;;;5002604;28;1456;-71
2023/11/21 06:30:54;;;;;;;;;;;19.20;68.70;;;;;;4986426;28;1353;-72
2023/11/21 06:33:21;;;;;;;;;;;19.20;68.70;;;;;;4974798;28;1392;-71
2023/11/21 06:35:47;;;;;;;;;;;19.20;68.70;;;;;;5004442;28;1360;-71
2023/11/21 06:38:12;;;;;;;;;;;19.20;68.70;;;;;;4992213;28;1895;-71
2023/11/21 06:40:38;;;;;;;;;;;19.20;68.70;;;;;;5002183;28;1427;-71
2023/11/21 06:43:06;;;;;;;;;;;19.20;68.70;;;;;;5003114;28;1550;-69
2023/11/21 06:45:32;;;;;;;;;;;19.20;68.70;;;;;;5003331;28;1372;-70
2023/11/21 06:47:59;;;;;;;;;;;19.20;68.70;;;;;;5003926;28;1366;-69
2023/11/21 06:50:24;;;;;;;;;;;19.20;68.70;;;;;;5005336;28;1241;-70
2023/11/21 06:52:50;;;;;;;;;;;19.20;68.70;;;;;;5003586;28;1203;-71
2023/11/21 06:55:16;;;;;;;;;;;19.20;68.80;;;;;;5007637;28;1276;-71
2023/11/21 06:57:41;;;;;;;;;;;19.20;68.70;;;;;;5005557;28;1906;-73
2023/11/21 07:00:08;;;;;;;;;;;19.20;68.70;;;;;;5000071;28;1435;-72
2023/11/21 07:02:34;;;;;;;;;;;19.20;68.70;;;;;;5002384;28;1203;-71
2023/11/21 07:04:59;;;;;;;;;;;19.20;68.70;;;;;;5001211;28;1306;-71
2023/11/21 07:07:25;;;;;;;;;;;19.20;68.70;;;;;;5002624;28;1398;-72
2023/11/21 07:09:51;;;;;;;;;;;19.20;68.70;;;;;;5000628;28;1423;-70
2023/11/21 07:12:17;;;;;;;;;;;19.20;68.60;;;;;;5001373;28;1477;-72
2023/11/21 07:14:44;;;;;;;;;;;19.30;68.60;;;;;;5001392;28;1532;-72
2023/11/21 07:17:11;;;;;;;;;;;19.30;69.20;;;;;;5002435;28;1906;-72
2023/11/21 07:19:37;;;;;;;;;;;19.40;68.40;;;;;;4985352;28;1159;-71
2023/11/21 07:22:03;;;;;;;;;;;19.50;68.30;;;;;;5002042;28;1380;-73
2023/11/21 07:24:28;;;;;;;;;;;19.50;68.30;;;;;;5008510;28;1438;-71
2023/11/21 07:26:56;;;;;;;;;;;19.60;68.10;;;;;;4996674;28;1591;-73
2023/11/21 07:29:23;;;;;;;;;;;19.70;67.90;;;;;;5008268;28;1230;-73
2023/11/21 07:31:48;;;;;;;;;;;19.80;67.60;;;;;;4988830;28;1337;-74
2023/11/21 07:34:14;;;;;;;;;;;19.90;67.40;;;;;;5009636;28;1379;-70
2023/11/21 07:36:39;;;;;;;;;;;20.00;67.10;;;;;;5007725;28;865;-69
2023/11/21 07:39:06;;;;;;;;;;;20.20;66.80;;;;;;5006501;28;1902;-70
2023/11/21 07:41:32;;;;;;;;;;;20.30;66.60;;;;;;5009975;28;1209;-71
2023/11/21 07:43:57;;;;;;;;;;;20.30;66.20;;;;;;5008214;28;1511;-70
2023/11/21 07:46:24;;;;;;;;;;;20.40;65.90;;;;;;5006279;28;1384;-72
2023/11/21 07:48:49;;;;;;;;;;;20.50;65.70;;;;;;5009832;28;1451;-73
2023/11/21 07:51:14;;;;;;;;;;;20.50;65.30;;;;;;5017284;28;1052;-73
2023/11/21 07:53:40;;;;;;;;;;;20.60;65.10;;;;;;5010731;28;1218;-74
2023/11/21 07:56:06;;;;;;;;;;;20.60;64.80;;;;;;5011751;28;1387;-69
2023/11/21 07:58:35;;;;;;;;;;;20.60;64.60;;;;;;5007726;28;1906;-69
2023/11/21 08:01:01;;;;;;;;;;;20.70;64.90;;;;;;4996582;28;1505;-69
2023/11/21 08:03:26;;;;;;;;;;;20.70;64.40;;;;;;4996454;28;1301;-68
2023/11/21 08:05:52;;;;;;;;;;;20.70;64.40;;;;;;5011112;28;1729;-69
2023/11/21 08:08:18;;;;;;;;;;;20.80;64.30;;;;;;5006241;28;1550;-69
2023/11/21 08:11:08;;;;;;;;;;;20.80;64.30;;;;;;4989543;28;1348;-69
2023/11/21 08:13:30;;;;;;;;;;;20.80;64.20;;;;;;5006575;28;1700;-69
2023/11/21 08:15:56;;;;;;;;;;;20.80;64.20;;;;;;5006409;28;1510;-70
2023/11/21 08:18:22;;;;;;;;;;;20.80;64.20;;;;;;4991514;28;1906;-69
2023/11/21 08:20:48;;;;;;;;;;;20.80;64.10;;;;;;5006044;28;1408;-69
2023/11/21 08:23:16;;;;;;;;;;;20.80;64.10;;;;;;5007513;28;1340;-72
2023/11/21 08:25:45;;;;;;;;;;;20.80;64.10;;;;;;4995735;28;2309;-72
2023/11/21 08:28:10;;;;;;;;;;;20.80;64.10;;;;;;4990549;28;2195;-71
2023/11/21 08:30:36;;;;;;;;;;;20.80;64.10;;;;;;4990597;28;2144;-72
2023/11/21 08:33:03;;;;;;;;;;;20.80;64.10;;;;;;5006349;28;1421;-71
2023/11/21 08:35:28;;;;;;;;;;;20.80;64.10;;;;;;5003018;28;1425;-71
2023/11/21 08:37:54;;;;;;;;;;;20.80;64.20;;;;;;5003447;28;1975;-71
2023/11/21 08:40:20;;;;;;;;;;;20.80;64.20;;;;;;5005262;28;1392;-71
2023/11/21 08:42:46;;;;;;;;;;;20.80;64.20;;;;;;5004819;28;1463;-72
2023/11/21 08:45:12;;;;;;;;;;;20.80;64.20;;;;;;4991863;28;1697;-73
2023/11/21 08:47:38;;;;;;;;;;;20.80;64.30;;;;;;5003446;28;1253;-71
2023/11/21 08:50:06;;;;;;;;;;;20.80;64.30;;;;;;5004257;28;1462;-71
2023/11/21 08:52:31;;;;;;;;;;;20.80;64.30;;;;;;5004208;28;1408;-71
2023/11/21 08:54:57;;;;;;;;;;;20.80;64.40;;;;;;5004135;28;1515;-74
2023/11/21 08:57:22;;;;;;;;;;;20.70;64.40;;;;;;5004345;28;2209;-73
2023/11/21 08:59:48;;;;;;;;;;;20.70;64.40;;;;;;5006524;28;1288;-72
2023/11/21 09:02:13;;;;;;;;;;;20.70;64.40;;;;;;5004912;28;1307;-72
2023/11/21 09:04:39;;;;;;;;;;;20.70;64.40;;;;;;4994338;28;1451;-73
2023/11/21 09:07:05;;;;;;;;;;;20.70;64.40;;;;;;5005626;28;1384;-71
2023/11/21 09:09:30;;;;;;;;;;;20.70;64.50;;;;;;5004023;28;1544;-71
2023/11/21 09:11:56;;;;;;;;;;;20.70;64.50;;;;;;5004194;28;1461;-71
2023/11/21 09:14:21;;;;;;;;;;;20.70;64.50;;;;;;5001923;28;1519;-72
2023/11/21 09:16:47;;;;;;;;;;;20.70;64.60;;;;;;5002246;28;1480;-71
2023/11/21 09:19:14;;;;;;;;;;;20.70;64.60;;;;;;5005666;28;1899;-71
2023/11/21 09:21:39;;;;;;;;;;;20.70;64.60;;;;;;4992523;28;1533;-72
2023/11/21 09:24:05;;;;;;;;;;;20.60;64.60;;;;;;4986688;28;2155;-72
2023/11/21 09:26:30;;;;;;;;;;;20.70;64.70;;;;;;4985872;28;1384;-71
2023/11/21 09:28:56;;;;;;;;;;;20.70;64.70;;;;;;5002467;28;1366;-71
2023/11/21 09:31:22;;;;;;;;;;;20.60;64.60;;;;;;5005370;28;1358;-72
2023/11/21 09:33:48;;;;;;;;;;;20.60;64.70;;;;;;4991936;28;2029;-71
2023/11/21 09:36:14;;;;;;;;;;;20.60;64.70;;;;;;4984629;28;1479;-70
2023/11/21 09:38:41;;;;;;;;;;;20.60;64.70;;;;;;4999814;28;1910;-72
2023/11/21 09:41:12;;;;;;;;;;;20.60;64.70;;;;;;5000520;28;1574;-71
2023/11/21 09:43:37;;;;;;;;;;;20.60;64.70;;;;;;5004346;28;1535;-72
2023/11/21 09:46:03;;;;;;;;;;;20.60;64.80;;;;;;4987313;28;1589;-72
2023/11/21 09:48:29;;;;;;;;;;;20.60;64.80;;;;;;4984109;28;1309;-72
2023/11/21 09:50:54;;;;;;;;;;;20.60;64.80;;;;;;4989682;28;1356;-73
2023/11/21 09:53:27;;;;;;;;;;;20.60;64.80;;;;;;5000846;28;1403;-72
2023/11/21 09:55:53;;;;;;;;;;;20.60;64.80;;;;;;5004716;28;1271;-72
2023/11/21 09:58:19;;;;;;;;;;;20.60;64.90;;;;;;5002898;28;1966;-69
2023/11/21 10:00:45;;;;;;;;;;;20.60;64.90;;;;;;5004525;28;1535;-70
2023/11/21 10:03:11;;;;;;;;;;;20.50;64.90;;;;;;5002853;28;1494;-71
2023/11/21 10:05:37;;;;;;;;;;;20.50;64.90;;;;;;5001692;28;961;-72
2023/11/21 10:08:11;;;;;;;;;;;20.50;65.00;;;;;;4992471;28;1313;-72
2023/11/21 10:10:38;;;;;;;;;;;20.50;65.00;;;;;;4984843;28;1216;-69
2023/11/21 10:13:07;;;;;;;;;;;20.50;65.00;;;;;;4994794;28;1391;-71
2023/11/21 10:15:36;;;;;;;;;;;20.50;65.00;;;;;;4999724;28;1441;-72
2023/11/21 10:18:09;;;;;;;;;;;20.50;65.10;;;;;;5001376;28;1902;-75
2023/11/21 10:20:34;;;;;;;;;;;20.50;65.20;;;;;;4986019;28;1658;-75
2023/11/21 10:23:03;;;;;;;;;;;20.40;65.20;;;;;;4989094;28;1412;-73
2023/11/21 10:25:29;;;;;;;;;;;20.40;65.30;;;;;;5001755;28;1320;-73
2023/11/21 10:28:00;;;;;;;;;;;20.40;65.30;;;;;;5005110;28;1174;-73
2023/11/21 10:30:38;;;;;;;;;;;20.30;65.30;;;;;;4990968;28;1191;-72
2023/11/21 10:33:04;;;;;;;;;;;20.40;65.40;;;;;;4982593;28;1520;-71
2023/11/21 10:35:39;;;;;;;;;;;20.30;65.40;;;;;;4999356;28;1353;-71
2023/11/21 10:38:05;;;;;;;;;;;20.30;65.50;;;;;;5002057;28;1965;-71
2023/11/21 10:40:30;;;;;;;;;;;20.30;65.50;;;;;;5004437;28;1559;-71
2023/11/21 10:43:04;;;;;;;;;;;20.30;65.50;;;;;;4999968;28;1234;-71
2023/11/21 10:45:30;;;;;;;;;;;20.30;65.60;;;;;;4997703;28;1649;-70
2023/11/21 10:47:56;;;;;;;;;;;20.30;65.60;;;;;;5000055;28;1433;-71
2023/11/21 10:50:21;;;;;;;;;;;20.30;65.60;;;;;;4999918;28;1325;-70
2023/11/21 10:52:47;;;;;;;;;;;20.30;65.60;;;;;;5003702;28;899;-70
2023/11/21 10:55:21;;;;;;;;;;;20.30;65.60;;;;;;5001147;28;1448;-71
2023/11/21 10:57:48;;;;;;;;;;;20.30;65.60;;;;;;4990018;28;1966;-71
2023/11/21 11:00:13;;;;;;;;;;;20.30;65.60;;;;;;4990576;28;1353;-71
2023/11/21 11:02:39;;;;;;;;;;;20.30;65.60;;;;;;5000672;28;1499;-70
2023/11/21 11:05:06;;;;;;;;;;;20.30;65.60;;;;;;4986064;28;1285;-70
2023/11/21 11:07:33;;;;;;;;;;;20.30;65.60;;;;;;4990558;28;1449;-71
2023/11/21 11:10:00;;;;;;;;;;;20.30;65.70;;;;;;5005758;28;1301;-71
2023/11/21 11:12:25;;;;;;;;;;;20.30;65.70;;;;;;5002680;28;1434;-71
2023/11/21 11:14:51;;;;;;;;;;;20.30;65.70;;;;;;5001315;28;1377;-71
2023/11/21 11:17:16;;;;;;;;;;;20.30;65.70;;;;;;4999928;28;1905;-71
2023/11/21 11:19:42;;;;;;;;;;;20.30;65.70;;;;;;4989819;28;1692;-71
2023/11/21 11:22:16;;;;;;;;;;;20.30;65.80;;;;;;5002239;28;1368;-71
2023/11/21 11:24:42;;;;;;;;;;;20.20;65.80;;;;;;5002368;28;1348;-71
2023/11/21 11:27:08;;;;;;;;;;;20.20;65.80;;;;;;5002947;28;1568;-71
2023/11/21 11:29:52;;;;;;;;;;;20.20;65.80;;;;;;5001381;28;1329;-71
2023/11/21 11:32:36;;;;;;;;;;;20.20;65.80;;;;;;5002207;28;1480;-71
2023/11/21 11:35:02;;;;;;;;;;;20.20;65.90;;;;;;4999998;28;1488;-71
2023/11/21 11:37:27;;;;;;;;;;;20.20;65.90;;;;;;5000556;28;1906;-71
2023/11/21 11:39:54;;;;;;;;;;;20.20;65.90;;;;;;4989835;28;1170;-70
2023/11/21 11:42:20;;;;;;;;;;;20.20;65.90;;;;;;4999066;28;1755;-71
2023/11/21 11:44:46;;;;;;;;;;;20.20;65.90;;;;;;5001142;28;1346;-70
2023/11/21 11:47:27;;;;;;;;;;;20.20;65.90;;;;;;4992446;28;1265;-70
2023/11/21 11:50:13;;;;;;;;;;;20.20;65.80;;;;;;4999477;28;1486;-69
2023/11/21 11:52:39;;;;;;;;;;;20.20;65.80;;;;;;5000471;28;1364;-71
2023/11/21 11:55:09;;;;;;;;;;;20.20;65.80;;;;;;4984880;28;1427;-70
2023/11/21 11:57:35;;;;;;;;;;;20.30;65.80;;;;;;5000419;28;1895;-71
2023/11/21 12:00:11;;;;;;;;;;;20.30;65.70;;;;;;5000664;28;1539;-71
2023/11/21 12:02:37;;;;;;;;;;;20.30;65.70;;;;;;4999747;28;1380;-71
2023/11/21 12:05:13;;;;;;;;;;;20.30;65.70;;;;;;5000440;28;1727;-70
2023/11/21 12:07:40;;;;;;;;;;;20.30;65.70;;;;;;4983440;28;1397;-70
2023/11/21 12:10:06;;;;;;;;;;;20.30;65.60;;;;;;5003147;28;1393;-70
2023/11/21 12:12:33;;;;;;;;;;;20.30;65.60;;;;;;5003695;28;1250;-70
2023/11/21 12:14:58;;;;;;;;;;;20.30;65.70;;;;;;5001846;28;1359;-70
2023/11/21 12:17:24;;;;;;;;;;;20.30;65.70;;;;;;5003303;28;1906;-70
2023/11/21 12:19:52;;;;;;;;;;;20.30;65.60;;;;;;4987039;28;1525;-70
2023/11/21 12:22:18;;;;;;;;;;;20.30;65.60;;;;;;5005493;28;1792;-71
2023/11/21 12:24:44;;;;;;;;;;;20.30;65.60;;;;;;4987661;28;1482;-70
2023/11/21 12:27:09;;;;;;;;;;;20.30;65.60;;;;;;5001985;28;1599;-71
2023/11/21 12:29:37;;;;;;;;;;;20.30;65.60;;;;;;5005093;28;1258;-70
2023/11/21 12:32:03;;;;;;;;;;;20.30;65.60;;;;;;4992690;28;1311;-70
2023/11/21 12:34:29;;;;;;;;;;;20.30;65.60;;;;;;5001499;28;1359;-70
2023/11/21 12:36:55;;;;;;;;;;;20.30;65.50;;;;;;5003897;28;1187;-70
2023/11/21 12:39:22;;;;;;;;;;;20.30;65.50;;;;;;4992152;28;1906;-70
2023/11/21 12:41:48;;;;;;;;;;;20.30;65.50;;;;;;5004395;28;1384;-70
2023/11/21 12:44:15;;;;;;;;;;;20.30;65.50;;;;;;5004569;28;1521;-70
2023/11/21 12:46:41;;;;;;;;;;;20.30;65.60;;;;;;4993293;28;1416;-70
2023/11/21 12:49:07;;;;;;;;;;;20.30;65.50;;;;;;4986184;28;1365;-70
2023/11/21 12:51:33;;;;;;;;;;;20.30;65.50;;;;;;5002122;28;1237;-70
2023/11/21 12:53:58;;;;;;;;;;;20.30;65.50;;;;;;5004504;28;1367;-70
2023/11/21 12:56:24;;;;;;;;;;;20.30;65.50;;;;;;5002325;28;1431;-70
2023/11/21 12:58:51;;;;;;;;;;;20.30;65.50;;;;;;4991355;28;1918;-70
2023/11/21 13:01:18;;;;;;;;;;;20.30;65.50;;;;;;4987954;28;1629;-70
2023/11/21 13:03:45;;;;;;;;;;;20.30;65.50;;;;;;5002874;28;1269;-70
2023/11/21 13:06:12;;;;;;;;;;;20.30;65.50;;;;;;5004051;28;1503;-70
2023/11/21 13:08:39;;;;;;;;;;;20.30;65.50;;;;;;5003684;28;1359;-70
2023/11/21 13:11:05;;;;;;;;;;;20.30;65.50;;;;;;5004123;28;1445;-70
2023/11/21 13:13:31;;;;;;;;;;;20.30;65.50;;;;;;5001715;28;1531;-71
2023/11/21 13:16:05;;;;;;;;;;;20.30;65.50;;;;;;5004844;28;1177;-69
2023/11/21 13:18:31;;;;;;;;;;;20.30;65.50;;;;;;5003204;28;1965;-70
2023/11/21 13:21:17;;;;;;;;;;;20.30;65.50;;;;;;4986277;28;1331;-72
2023/11/21 13:23:45;;;;;;;;;;;20.30;65.50;;;;;;5002209;28;2160;-69
2023/11/21 13:26:12;;;;;;;;;;;20.30;65.60;;;;;;4985488;28;1381;-70
2023/11/21 13:28:37;;;;;;;;;;;20.30;65.60;;;;;;5002776;28;1239;-70
2023/11/21 13:31:09;;;;;;;;;;;20.20;65.60;;;;;;5003355;28;1218;-71
2023/11/21 13:33:37;;;;;;;;;;;20.20;65.60;;;;;;5003443;28;1377;-69
2023/11/21 13:36:07;;;;;;;;;;;20.20;65.70;;;;;;4989902;28;1266;-69
2023/11/21 13:38:34;;;;;;;;;;;20.20;65.70;;;;;;5003030;28;1969;-70
2023/11/21 13:41:00;;;;;;;;;;;20.20;65.70;;;;;;4989893;28;1573;-70
2023/11/21 13:43:25;;;;;;;;;;;20.20;65.80;;;;;;5002760;28;1371;-69
2023/11/21 13:45:58;;;;;;;;;;;20.20;65.80;;;;;;4991457;28;1440;-69
2023/11/21 13:48:31;;;;;;;;;;;20.20;65.90;;;;;;5002126;28;2044;-70
2023/11/21 13:51:08;;;;;;;;;;;20.20;65.90;;;;;;4988868;28;1520;-71
2023/11/21 13:53:36;;;;;;;;;;;20.20;66.00;;;;;;5002722;28;1351;-70
2023/11/21 13:56:01;;;;;;;;;;;20.10;66.00;;;;;;5002943;28;1534;-70
2023/11/21 13:58:51;;;;;;;;;;;20.10;66.00;;;;;;5000870;28;1959;-70
2023/11/21 14:01:41;;;;;;;;;;;20.10;66.00;;;;;;5004485;28;1269;-70
2023/11/21 14:04:13;;;;;;;;;;;20.10;66.10;;;;;;4985019;28;1400;-70
2023/11/21 14:06:47;;;;;;;;;;;20.10;66.10;;;;;;4975131;28;1402;-71
2023/11/21 14:09:22;;;;;;;;;;;20.10;66.20;;;;;;5000146;28;1315;-71
2023/11/21 14:11:55;;;;;;;;;;;20.10;66.10;;;;;;5003960;28;1281;-70
2023/11/21 14:14:21;;;;;;;;;;;20.10;66.20;;;;;;4985391;28;1387;-70
2023/11/21 14:16:46;;;;;;;;;;;20.10;66.20;;;;;;4984799;28;1461;-71
2023/11/21 14:19:18;;;;;;;;;;;20.10;66.20;;;;;;5001601;28;1914;-71
2023/11/21 14:21:43;;;;;;;;;;;20.00;66.20;;;;;;5001271;28;1566;-71
2023/11/21 14:24:09;;;;;;;;;;;20.00;66.20;;;;;;5004593;28;1503;-70
2023/11/21 14:26:35;;;;;;;;;;;20.00;66.20;;;;;;5003329;28;1564;-70
2023/11/21 14:29:00;;;;;;;;;;;20.00;66.30;;;;;;5002266;28;1431;-71